createdAt,value
2019-01-16T00:00:30.121Z,97999.33
2019-01-16T00:03:11.879Z,98003.99
2019-01-16T00:05:59.623Z,98010.58
2019-01-16T00:08:37.099Z,97999.05
2019-01-16T00:11:14.379Z,97999.05
2019-01-16T00:14:02.046Z,98001.44
2019-01-16T00:16:38.275Z,97992.89
2019-01-16T00:19:25.640Z,97996.52
2019-01-16T00:22:08.944Z,97993.19
2019-01-16T00:24:52.151Z,97995.63
2019-01-16T00:27:38.096Z,97993.85
2019-01-16T00:30:18.315Z,97990.58
2019-01-16T00:32:52.476Z,97991.09
2019-01-16T00:35:23.811Z,97986.51
2019-01-16T00:37:58.742Z,97982.70
2019-01-16T00:40:42.215Z,97981.57
2019-01-16T00:43:14.587Z,97982.12
2019-01-16T00:45:55.301Z,97987.62
2019-01-16T00:48:38.609Z,97990.39
2019-01-16T00:51:29.863Z,97991.75
2019-01-16T00:54:04.533Z,97992.78
2019-01-16T00:56:50.831Z,97991.91
2019-01-16T00:59:26.901Z,97985.27
2019-01-16T01:02:14.115Z,97995.07
2019-01-16T01:04:54.964Z,97993.36
2019-01-16T01:07:37.987Z,97995.77
2019-01-16T01:10:20.207Z,98003.03
2019-01-16T01:13:03.623Z,98002.03
2019-01-16T01:15:40.797Z,97999.20
2019-01-16T01:18:15.085Z,98010.28
2019-01-16T01:20:46.562Z,98006.99
2019-01-16T01:23:26.683Z,98015.73
2019-01-16T01:26:14.233Z,98010.87
2019-01-16T01:28:45.549Z,98031.19
2019-01-16T01:31:25.827Z,98026.92
2019-01-16T01:33:57.169Z,98026.50
2019-01-16T01:36:49.711Z,98030.99
2019-01-16T01:39:32.420Z,98029.27
2019-01-16T01:42:06.840Z,98028.73
2019-01-16T01:44:57.229Z,98023.40
2019-01-16T01:47:37.558Z,98030.55
2019-01-16T01:50:13.783Z,98028.16
2019-01-16T01:53:01.238Z,98024.45
2019-01-16T01:55:44.696Z,98022.29
2019-01-16T01:58:21.934Z,98022.42
2019-01-16T02:01:02.241Z,98025.63
2019-01-16T02:03:43.687Z,98027.91
2019-01-16T02:06:32.500Z,98026.58
2019-01-16T02:09:17.130Z,98023.95
2019-01-16T02:11:50.160Z,98009.58
2019-01-16T02:14:22.306Z,98022.17
2019-01-16T02:17:14.811Z,98018.56
2019-01-16T02:19:49.148Z,98010.53
2019-01-16T02:22:22.274Z,98011.91
2019-01-16T02:24:56.636Z,98013.37
2019-01-16T02:27:39.829Z,98007.97
2019-01-16T02:30:23.354Z,98007.52
2019-01-16T02:32:58.385Z,98003.15
2019-01-16T02:35:33.253Z,98010.58
2019-01-16T02:38:10.364Z,98009.63
2019-01-16T02:40:41.851Z,98002.02
2019-01-16T02:43:16.034Z,98007.77
2019-01-16T02:45:50.136Z,98001.29
2019-01-16T02:48:21.457Z,98008.98
2019-01-16T02:51:01.715Z,98005.67
2019-01-16T02:53:34.573Z,98003.05
2019-01-16T02:56:11.662Z,98002.18
2019-01-16T02:59:01.093Z,97999.34
2019-01-16T06:50:24.635Z,98043.25
2019-01-16T06:53:10.841Z,98042.52
2019-01-16T06:55:57.477Z,98046.81
2019-01-16T06:58:35.191Z,98044.98
2019-01-16T07:01:17.076Z,98047.81
2019-01-16T07:04:08.808Z,98048.53
2019-01-16T07:06:58.553Z,98043.48
2019-01-16T07:09:29.882Z,98063.09
2019-01-16T07:12:21.145Z,98044.30
2019-01-16T07:15:14.077Z,98057.13
2019-01-16T07:17:48.453Z,98055.71
2019-01-16T07:20:28.502Z,98058.31
2019-01-16T07:22:59.911Z,98064.58
2019-01-16T07:25:40.022Z,98063.06
2019-01-16T07:28:14.407Z,98068.98
2019-01-16T07:30:54.460Z,98071.02
2019-01-16T07:33:41.886Z,98076.73
2019-01-16T07:36:13.193Z,98065.23
2019-01-16T07:38:53.636Z,98074.17
2019-01-16T07:41:28.523Z,98078.17
2019-01-16T07:44:18.370Z,98075.00
2019-01-16T07:46:55.030Z,98082.55
2019-01-16T07:49:30.326Z,98091.10
2019-01-16T07:52:07.764Z,98088.00
2019-01-16T07:54:55.505Z,98088.20
2019-01-16T07:57:33.042Z,98082.01
2019-01-16T08:00:04.505Z,98091.25
2019-01-16T08:02:54.578Z,98087.31
2019-01-16T08:05:25.941Z,98085.25
2019-01-16T08:07:57.266Z,98099.30
2019-01-16T08:10:42.029Z,98090.89
2019-01-16T08:13:25.606Z,98097.22
2019-01-16T08:16:14.843Z,98095.42
2019-01-16T08:18:46.159Z,98100.52
2019-01-16T08:21:35.004Z,98105.54
2019-01-16T08:24:10.223Z,98099.03
2019-01-16T08:27:05.301Z,98102.16
2019-01-16T08:29:53.750Z,98111.70
2019-01-16T08:32:35.265Z,98110.00
2019-01-16T08:35:10.545Z,98110.67
2019-01-16T08:37:43.217Z,98107.61
2019-01-16T08:40:26.619Z,98116.55
2019-01-16T08:42:58.089Z,98112.08
2019-01-16T08:45:38.384Z,98111.55
2019-01-16T08:48:18.837Z,98114.13
2019-01-16T08:50:56.218Z,98114.56
2019-01-16T08:53:44.220Z,98120.36
2019-01-16T08:56:18.275Z,98112.62
2019-01-16T08:59:05.678Z,98124.07
2019-01-16T09:01:54.899Z,98121.25
2019-01-16T09:04:27.267Z,98121.77
2019-01-16T09:07:04.229Z,98120.48
2019-01-16T09:09:41.532Z,98110.50
2019-01-16T09:12:16.139Z,98116.34
2019-01-16T09:14:56.674Z,98117.81
2019-01-16T09:17:30.854Z,98121.71
2019-01-16T09:20:02.621Z,98116.77
2019-01-16T09:22:34.631Z,98109.67
2019-01-16T09:25:17.511Z,98120.42
2019-01-16T09:28:05.005Z,98122.89
2019-01-16T09:30:45.260Z,98123.63
2019-01-16T09:33:25.978Z,98121.16
2019-01-16T09:36:00.075Z,98135.47
2019-01-16T09:38:31.428Z,98124.98
2019-01-16T09:41:09.579Z,98122.39
2019-01-16T09:43:41.004Z,98117.60
2019-01-16T09:46:27.550Z,98113.72
2019-01-16T09:48:58.883Z,98120.22
2019-01-16T09:51:34.780Z,98118.86
2019-01-16T09:54:15.776Z,98114.45
2019-01-16T09:56:49.025Z,98107.52
2019-01-16T09:59:24.021Z,98120.02
2019-01-16T10:02:01.351Z,98119.81
2019-01-16T10:04:35.690Z,98105.08
2019-01-16T10:07:16.692Z,98111.16
2019-01-16T10:09:54.997Z,98103.25
2019-01-16T10:12:44.125Z,98099.25
2019-01-16T10:15:34.850Z,98101.73
2019-01-16T10:18:09.379Z,98095.63
2019-01-16T10:20:46.125Z,98080.05
2019-01-16T10:23:28.921Z,98076.94
2019-01-16T10:26:08.945Z,98085.05
2019-01-16T10:28:58.344Z,98081.48
2019-01-16T10:31:45.899Z,98073.02
2019-01-16T10:34:27.572Z,98073.92
2019-01-16T10:37:05.959Z,98069.42
2019-01-16T10:39:40.672Z,98066.86
2019-01-16T10:42:26.277Z,98062.30
2019-01-16T10:44:57.718Z,98060.33
2019-01-16T10:47:29.031Z,98051.39
2019-01-16T10:50:06.278Z,98050.66
2019-01-16T10:52:49.693Z,98050.48
2019-01-16T10:55:26.584Z,98048.80
2019-01-16T10:58:14.010Z,98036.25
2019-01-16T11:00:48.378Z,98038.34
2019-01-16T11:03:31.011Z,98030.64
2019-01-16T11:06:03.012Z,98024.98
2019-01-16T11:08:43.398Z,98029.11
2019-01-16T11:11:17.978Z,98025.90
2019-01-16T11:13:52.128Z,98018.45
2019-01-16T11:16:34.618Z,98010.34
2019-01-16T11:19:12.093Z,98007.64
2019-01-16T11:22:02.650Z,98003.44
2019-01-16T11:24:43.944Z,98006.71
2019-01-16T11:27:18.367Z,97997.91
2019-01-16T11:29:49.690Z,97996.48
2019-01-16T11:32:26.975Z,97996.98
2019-01-16T11:35:07.171Z,97994.05
2019-01-16T11:37:41.586Z,97996.30
2019-01-16T11:40:31.111Z,97983.78
2019-01-16T11:43:18.623Z,97979.91
2019-01-16T11:46:07.343Z,97988.67
2019-01-16T11:48:53.796Z,97982.70
2019-01-16T11:51:38.416Z,97970.14
2019-01-16T11:54:12.820Z,97964.48
2019-01-16T11:56:47.039Z,97964.30
2019-01-16T11:59:19.757Z,97960.93
2019-01-16T12:02:06.855Z,97966.98
2019-01-16T12:04:50.120Z,97960.58
2019-01-16T12:07:27.406Z,97965.33
2019-01-16T12:09:58.818Z,97948.97
2019-01-16T12:12:42.087Z,97940.14
2019-01-16T12:15:16.040Z,97948.33
2019-01-16T12:17:52.091Z,97939.51
2019-01-16T12:20:27.861Z,97938.19
2019-01-16T12:22:59.290Z,97935.68
2019-01-16T12:25:36.674Z,97938.53
2019-01-16T12:28:08.155Z,97929.69
2019-01-16T12:30:48.467Z,97939.68
2019-01-16T12:33:22.375Z,97934.80
2019-01-16T12:36:08.638Z,97917.39
2019-01-16T12:38:40.043Z,97919.95
2019-01-16T12:41:11.479Z,97922.53
2019-01-16T12:43:59.095Z,97911.09
2019-01-16T12:46:48.500Z,97911.51
2019-01-16T12:49:38.447Z,97905.49
2019-01-16T12:52:14.819Z,97907.93
2019-01-16T12:54:59.145Z,97911.44
2019-01-16T12:57:30.640Z,97905.08
2019-01-16T13:00:04.735Z,97903.64
2019-01-16T13:02:41.355Z,97893.70
2019-01-16T13:05:15.564Z,97891.57
2019-01-16T13:07:55.845Z,97891.05
2019-01-16T13:10:39.093Z,97882.97
2019-01-16T13:13:16.525Z,97893.20
2019-01-16T13:15:59.946Z,97883.76
2019-01-16T13:18:43.596Z,97876.33
2019-01-16T13:21:24.054Z,97886.44
2019-01-16T13:23:55.574Z,97892.78
2019-01-16T13:26:46.533Z,97885.73
2019-01-16T13:29:21.330Z,97887.28
2019-01-16T13:32:06.486Z,97892.69
2019-01-16T13:34:42.652Z,97877.98
2019-01-16T13:37:23.033Z,97884.58
2019-01-16T13:40:10.163Z,97885.38
2019-01-16T13:42:46.093Z,97874.98
2019-01-16T13:45:37.343Z,97872.05
2019-01-16T13:48:11.725Z,97886.50
2019-01-16T13:50:46.224Z,97869.16
2019-01-16T13:53:17.606Z,97890.66
2019-01-16T13:55:52.196Z,97881.11
2019-01-16T13:58:38.651Z,97882.52
2019-01-16T14:01:25.628Z,97891.22
2019-01-16T14:04:13.035Z,97886.29
2019-01-16T14:06:45.647Z,97882.98
2019-01-16T14:09:26.703Z,97890.54
2019-01-16T14:12:15.880Z,97890.41
2019-01-16T14:14:50.025Z,97889.92
2019-01-16T14:17:35.607Z,97883.25
2019-01-16T14:23:19.148Z,97891.95
2019-01-16T14:25:53.543Z,97890.33
2019-01-16T14:28:28.439Z,97881.77
2019-01-16T14:30:59.768Z,97883.59
2019-01-16T14:33:32.232Z,97879.16
2019-01-16T14:36:07.558Z,97878.58
2019-01-16T14:38:44.737Z,97881.21
2019-01-16T14:41:35.016Z,97875.55
2019-01-16T14:44:18.981Z,97877.52
2019-01-16T14:46:52.203Z,97876.30
2019-01-16T14:49:34.860Z,97882.73
2019-01-16T14:52:13.429Z,97884.38
2019-01-16T14:54:54.630Z,97879.63
2019-01-16T14:57:42.140Z,97879.95
2019-01-16T15:00:24.041Z,97879.47
2019-01-16T15:03:01.553Z,97876.05
2019-01-16T15:05:49.914Z,97877.95
2019-01-16T15:08:39.999Z,97873.25
2019-01-16T15:11:27.676Z,97872.79
2019-01-16T15:13:59.809Z,97875.77
2019-01-16T15:16:53.941Z,97877.36
2019-01-16T15:19:34.255Z,97880.45
2019-01-16T15:22:12.742Z,97872.86
2019-01-16T15:24:58.502Z,97870.41
2019-01-16T15:27:29.980Z,97869.97
2019-01-16T15:30:01.480Z,97867.95
2019-01-16T15:32:32.987Z,97866.84
2019-01-16T15:35:07.096Z,97865.14
2019-01-16T15:37:41.154Z,97873.66
2019-01-16T15:40:30.539Z,97876.17
2019-01-16T15:43:01.940Z,97868.50
2019-01-16T15:45:48.106Z,97864.34
2019-01-16T15:48:19.604Z,97863.71
2019-01-16T15:51:15.788Z,97869.84
2019-01-16T15:53:50.370Z,97876.85
2019-01-16T15:56:26.999Z,97870.47
2019-01-16T15:59:01.313Z,97878.53
2019-01-16T16:01:32.632Z,97875.01
2019-01-16T16:04:04.240Z,97878.32
2019-01-16T16:06:52.166Z,97873.56
2019-01-16T16:09:25.344Z,97875.97
2019-01-16T16:12:10.287Z,97892.53
2019-01-16T16:14:50.354Z,97889.69
2019-01-16T16:17:40.435Z,97888.39
2019-01-16T16:20:24.659Z,97884.40
2019-01-16T16:22:56.000Z,97888.12
2019-01-16T16:25:43.406Z,97887.29
2019-01-16T16:28:18.005Z,97885.30
2019-01-16T16:30:49.586Z,97886.05
2019-01-16T16:33:28.274Z,97886.58
2019-01-16T16:36:08.899Z,97888.82
2019-01-16T16:38:44.838Z,97884.66
2019-01-16T16:41:19.327Z,97885.97
2019-01-16T16:44:03.813Z,97885.54
2019-01-16T16:46:37.966Z,97884.57
2019-01-16T16:49:21.375Z,97883.08
2019-01-16T16:51:58.739Z,97882.62
2019-01-16T16:54:33.615Z,97882.62
2019-01-16T17:00:40.399Z,97868.30
2019-01-16T17:03:11.843Z,97878.16
2019-01-16T17:05:46.237Z,97882.34
2019-01-16T17:08:27.360Z,97882.11
2019-01-16T17:11:07.293Z,97883.08
2019-01-16T17:16:54.969Z,97885.30
2019-01-16T17:19:29.515Z,97880.80
2019-01-16T17:22:07.805Z,97880.20
2019-01-16T17:24:53.630Z,97881.77
2019-01-16T17:27:27.759Z,97879.53
2019-01-16T17:30:02.172Z,97883.61
2019-01-16T17:40:33.146Z,97877.14
2019-01-16T17:43:07.821Z,97885.83
2019-01-16T17:52:19.277Z,97876.15
2019-01-16T17:55:02.787Z,97875.09
2019-01-16T17:57:49.251Z,97874.94
2019-01-16T18:00:24.783Z,97872.34
2019-01-16T18:03:15.761Z,97881.20
2019-01-16T18:05:54.738Z,97876.89
2019-01-16T18:08:43.452Z,97884.03
2019-01-16T18:11:30.842Z,97883.17
2019-01-16T18:14:05.219Z,97873.97
2019-01-16T18:16:52.917Z,97876.27
2019-01-16T18:19:26.599Z,97885.81
2019-01-16T18:22:00.799Z,97884.37
2019-01-16T18:24:32.802Z,97883.63
2019-01-16T18:27:13.162Z,97886.53
2019-01-16T18:30:01.012Z,97884.81
2019-01-16T18:32:35.337Z,97890.63
2019-01-16T18:35:26.341Z,97883.47
2019-01-16T18:38:13.632Z,97883.45
2019-01-16T18:40:45.576Z,97887.80
2019-01-16T18:43:20.084Z,97885.23
2019-01-16T18:46:00.735Z,97888.19
2019-01-16T18:48:32.201Z,97886.02
2019-01-16T18:51:18.654Z,97889.79
2019-01-16T18:53:53.108Z,97889.79
2019-01-16T18:56:40.869Z,97886.62
2019-01-16T18:59:12.350Z,97889.84
2019-01-16T19:01:53.114Z,97888.30
2019-01-16T19:04:24.445Z,97882.48
2019-01-16T19:07:18.535Z,97881.87
2019-01-16T19:09:50.310Z,97895.59
2019-01-16T19:12:42.323Z,97887.05
2019-01-16T19:15:16.091Z,97888.05
2019-01-16T19:18:05.477Z,97888.64
2019-01-16T19:20:40.483Z,97896.14
2019-01-16T19:23:24.240Z,97891.33
2019-01-16T19:26:11.722Z,97893.17
2019-01-16T19:28:48.899Z,97891.94
2019-01-16T19:31:20.383Z,97893.61
2019-01-16T19:33:55.181Z,97892.77
2019-01-16T19:36:26.607Z,97890.94
2019-01-16T19:39:07.341Z,97895.38
2019-01-16T19:41:38.786Z,97899.33
2019-01-16T19:44:26.487Z,97893.89
2019-01-16T19:47:01.471Z,97897.05
2019-01-16T19:49:40.592Z,97889.84
2019-01-16T19:52:15.159Z,97896.68
2019-01-16T19:55:03.762Z,97892.08
2019-01-16T19:57:45.302Z,97898.05
2019-01-16T20:00:28.060Z,97891.28
2019-01-16T20:03:10.623Z,97904.90
2019-01-16T20:05:49.111Z,97901.93
2019-01-16T20:08:20.577Z,97897.06
2019-01-16T20:11:03.422Z,97903.56
2019-01-16T20:13:37.679Z,97903.05
2019-01-16T20:16:26.124Z,97909.87
2019-01-16T20:19:13.682Z,97906.58
2019-01-16T20:21:48.243Z,97905.47
2019-01-16T20:24:21.631Z,97909.27
2019-01-16T20:27:12.807Z,97912.35
2019-01-16T20:30:01.245Z,97912.64
2019-01-16T20:32:38.846Z,97910.59
2019-01-16T20:35:16.294Z,97905.31
2019-01-16T20:38:03.871Z,97917.98
2019-01-16T20:40:41.166Z,97914.68
2019-01-16T20:43:12.528Z,97912.02
2019-01-16T20:45:59.060Z,97918.19
2019-01-16T20:48:30.509Z,97915.94
2019-01-16T20:51:01.835Z,97914.41
2019-01-16T20:53:40.723Z,97914.00
2019-01-16T20:56:15.274Z,97913.69
2019-01-16T20:58:53.135Z,97917.39
2019-01-16T21:01:24.458Z,97917.08
2019-01-16T21:04:01.783Z,97913.09
2019-01-16T21:06:50.102Z,97918.53
2019-01-16T21:09:24.764Z,97912.89
2019-01-16T21:12:01.842Z,97914.73
2019-01-16T21:14:41.329Z,97922.55
2019-01-16T21:17:19.706Z,97923.27
2019-01-16T21:19:52.652Z,97920.09
2019-01-16T21:22:42.635Z,97918.87
2019-01-16T21:25:32.206Z,97920.00
2019-01-16T21:28:06.501Z,97919.58
2019-01-16T21:30:49.910Z,97917.31
2019-01-16T21:33:37.796Z,97920.11
2019-01-16T21:36:18.061Z,97915.77
2019-01-16T21:38:49.372Z,97919.16
2019-01-16T21:41:21.998Z,97921.63
2019-01-16T21:43:59.102Z,97920.59
2019-01-16T21:46:30.529Z,97923.76
2019-01-16T21:49:01.893Z,97923.47
2019-01-16T21:51:33.889Z,97922.43
2019-01-16T21:54:05.402Z,97929.11
2019-01-16T21:56:38.021Z,97923.89
2019-01-16T21:59:12.083Z,97924.22
2019-01-16T22:01:49.954Z,97924.09
2019-01-16T22:04:30.867Z,97922.55
2019-01-16T22:07:22.300Z,97916.50
2019-01-16T22:09:59.520Z,97913.41
2019-01-16T22:12:48.514Z,97918.63
2019-01-16T22:15:28.608Z,97917.20
2019-01-16T22:18:03.663Z,97916.59
2019-01-16T22:20:35.437Z,97912.16
2019-01-16T22:23:07.714Z,97911.86
2019-01-16T22:25:48.665Z,97910.11
2019-01-16T22:28:29.099Z,97904.84
2019-01-16T22:31:06.195Z,97910.48
2019-01-16T22:33:46.849Z,97907.19
2019-01-16T22:36:18.171Z,97905.36
2019-01-16T22:38:51.168Z,97905.06
2019-01-16T22:41:25.561Z,97904.44
2019-01-16T22:43:57.421Z,97906.27
2019-01-16T22:46:33.453Z,97909.15
2019-01-16T22:49:07.185Z,97895.58
2019-01-16T22:51:46.195Z,97900.62
2019-01-16T22:54:18.224Z,97894.45
2019-01-16T22:57:07.667Z,97895.92
2019-01-16T22:59:46.512Z,97892.50
2019-01-16T23:02:27.546Z,97888.70
2019-01-16T23:05:02.817Z,97889.45
2019-01-16T23:07:50.844Z,97881.84
2019-01-16T23:10:38.243Z,97875.47
2019-01-16T23:13:09.599Z,97877.42
2019-01-16T23:15:51.955Z,97875.88
2019-01-16T23:18:32.989Z,97872.08
2019-01-16T23:21:20.837Z,97872.48
2019-01-16T23:23:55.935Z,97872.08
2019-01-16T23:26:36.059Z,97865.60
2019-01-16T23:29:21.649Z,97858.42
2019-01-16T23:31:57.611Z,97866.65
2019-01-16T23:34:45.215Z,97854.09
2019-01-16T23:37:23.305Z,97865.70
2019-01-16T23:40:04.657Z,97856.73
2019-01-16T23:43:03.825Z,97852.22
2019-01-16T23:45:43.734Z,97862.41
2019-01-16T23:48:43.057Z,97858.91
2019-01-16T23:51:40.643Z,97852.55
2019-01-16T23:54:18.532Z,97847.71
2019-01-16T23:57:21.138Z,97846.08
